createdAt,value
2023-11-08T00:00:40.845Z,6.13
2023-11-08T00:03:10.084Z,6.90
2023-11-08T00:05:45.197Z,6.60
2023-11-08T00:08:11.672Z,6.88
2023-11-08T00:10:47.729Z,7.75
2023-11-08T00:13:14.114Z,6.93
2023-11-08T00:15:40.588Z,6.18
2023-11-08T00:18:10.097Z,6.55
2023-11-08T00:20:36.575Z,6.63
2023-11-08T00:23:03.012Z,7.47
2023-11-08T00:25:29.413Z,7.75
2023-11-08T00:27:55.929Z,7.55
2023-11-08T00:30:44.640Z,6.88
2023-11-08T00:33:12.768Z,6.95
2023-11-08T00:35:40.787Z,7.60
2023-11-08T00:38:16.624Z,9.40
2023-11-08T00:40:43.123Z,9.32
2023-11-08T00:43:14.355Z,6.70
2023-11-08T00:45:44.201Z,8.77
2023-11-08T00:48:10.800Z,7.72
2023-11-08T00:50:43.185Z,9.05
2023-11-08T00:53:14.741Z,8.10
2023-11-08T00:55:41.373Z,9.48
2023-11-08T00:58:11.525Z,8.75
2023-11-08T01:00:40.728Z,9.10
2023-11-08T01:03:07.357Z,8.70
2023-11-08T01:05:33.940Z,9.88
2023-11-08T01:08:02.980Z,10.85
2023-11-08T01:10:29.441Z,10.27
2023-11-08T01:12:56.641Z,9.73
2023-11-08T01:15:23.110Z,8.40
2023-11-08T01:17:49.669Z,10.30
2023-11-08T01:20:16.161Z,11.00
2023-11-08T01:22:42.558Z,9.75
2023-11-08T01:25:12.800Z,8.13
2023-11-08T01:27:59.657Z,8.68
2023-11-08T01:30:26.345Z,8.32
2023-11-08T01:33:02.109Z,9.20
2023-11-08T01:35:28.531Z,8.45
2023-11-08T01:38:00.473Z,9.23
2023-11-08T01:42:56.724Z,8.27
2023-11-08T01:45:23.332Z,4.93
2023-11-08T01:48:13.272Z,8.48
2023-11-08T01:50:54.791Z,8.38
2023-11-08T01:53:21.863Z,7.85
2023-11-08T01:55:48.436Z,8.15
2023-11-08T01:58:20.651Z,8.20
2023-11-08T02:00:50.531Z,7.78
2023-11-08T02:03:20.394Z,7.85
2023-11-08T02:05:46.864Z,6.93
2023-11-08T02:08:16.393Z,7.35
2023-11-08T02:11:13.201Z,8.43
2023-11-08T02:13:29.957Z,7.70
2023-11-08T02:15:56.461Z,7.93
2023-11-08T02:18:27.209Z,8.27
2023-11-08T02:20:54.294Z,8.32
2023-11-08T02:23:26.529Z,8.45
2023-11-08T02:26:02.900Z,7.70
2023-11-08T02:28:29.377Z,7.40
2023-11-08T02:30:56.692Z,7.93
2023-11-08T02:33:28.016Z,8.07
2023-11-08T02:35:55.142Z,9.70
2023-11-08T02:38:24.510Z,9.13
2023-11-08T02:40:55.922Z,9.85
2023-11-08T02:43:22.861Z,8.88
2023-11-08T02:45:51.351Z,9.38
2023-11-08T02:48:23.452Z,10.15
2023-11-08T02:50:51.760Z,9.55
2023-11-08T02:53:18.350Z,8.13
2023-11-08T02:55:44.753Z,8.02
2023-11-08T02:58:11.261Z,9.27
2023-11-08T03:00:41.775Z,8.70
2023-11-08T03:03:10.968Z,8.63
2023-11-08T03:05:37.493Z,8.57
2023-11-08T03:08:04.284Z,7.78
2023-11-08T03:10:35.366Z,7.05
2023-11-08T03:13:05.660Z,8.00
2023-11-08T03:15:32.627Z,7.88
2023-11-08T03:18:04.732Z,7.00
2023-11-08T03:20:31.242Z,6.43
2023-11-08T03:22:57.736Z,6.65
2023-11-08T03:25:26.284Z,6.55
2023-11-08T03:27:52.819Z,5.60
2023-11-08T03:30:19.283Z,6.82
2023-11-08T03:32:46.169Z,7.03
2023-11-08T03:35:13.362Z,6.25
2023-11-08T03:37:45.585Z,7.78
2023-11-08T03:40:14.483Z,9.00
2023-11-08T03:42:46.699Z,9.07
2023-11-08T03:45:21.730Z,10.55
2023-11-08T03:47:49.350Z,12.30
2023-11-08T03:50:15.850Z,9.65
2023-11-08T03:52:42.412Z,9.85
2023-11-08T03:55:12.693Z,12.80
2023-11-08T03:57:42.188Z,10.93
2023-11-08T04:00:14.270Z,10.75
2023-11-08T04:02:43.661Z,12.35
2023-11-08T04:05:12.885Z,9.88
2023-11-08T04:07:42.394Z,12.70
2023-11-08T04:10:15.067Z,13.73
2023-11-08T04:12:41.879Z,11.38
2023-11-08T04:15:25.212Z,12.63
2023-11-08T04:17:51.794Z,14.25
2023-11-08T04:20:18.410Z,14.25
2023-11-08T04:22:51.258Z,14.77
2023-11-08T04:25:17.632Z,15.00
2023-11-08T04:27:50.148Z,15.23
2023-11-08T04:30:16.937Z,14.80
2023-11-08T04:32:43.456Z,16.38
2023-11-08T04:35:19.185Z,16.35
2023-11-08T04:37:45.650Z,15.27
2023-11-08T04:40:12.307Z,11.25
2023-11-08T04:42:42.383Z,16.08
2023-11-08T04:45:11.544Z,11.98
2023-11-08T04:47:37.967Z,17.13
2023-11-08T04:50:04.720Z,16.30
2023-11-08T04:52:31.216Z,16.73
2023-11-08T04:54:59.231Z,16.85
2023-11-08T04:57:25.714Z,16.52
2023-11-08T04:59:52.601Z,17.65
2023-11-08T05:02:24.135Z,13.20
2023-11-08T05:04:50.982Z,15.98
2023-11-08T05:07:18.072Z,17.52
2023-11-08T05:09:45.138Z,16.00
2023-11-08T05:12:12.596Z,16.42
2023-11-08T05:14:41.385Z,14.98
2023-11-08T05:17:07.892Z,17.75
2023-11-08T05:19:37.307Z,16.92
2023-11-08T05:22:06.327Z,14.95
2023-11-08T05:24:32.782Z,16.23
2023-11-08T05:26:59.218Z,15.35
2023-11-08T05:29:28.400Z,16.58
2023-11-08T05:31:54.784Z,14.85
2023-11-08T05:34:23.567Z,14.35
2023-11-08T05:36:55.874Z,15.93
2023-11-08T05:39:26.571Z,17.25
2023-11-08T05:41:56.476Z,15.93
2023-11-08T05:44:36.285Z,16.58
2023-11-08T05:47:02.971Z,18.02
2023-11-08T05:49:29.459Z,16.17
2023-11-08T05:52:01.706Z,17.42
2023-11-08T05:54:28.168Z,16.30
2023-11-08T05:56:57.960Z,15.48
2023-11-08T05:59:26.908Z,16.17
2023-11-08T06:01:59.350Z,17.77
2023-11-08T06:04:26.239Z,16.63
2023-11-08T06:06:55.139Z,14.55
2023-11-08T06:09:21.793Z,14.65
2023-11-08T06:11:54.075Z,14.70
2023-11-08T06:14:33.480Z,14.45
2023-11-08T06:16:59.940Z,15.40
2023-11-08T06:19:26.627Z,14.50
2023-11-08T06:21:54.403Z,16.02
2023-11-08T06:24:20.985Z,15.32
2023-11-08T06:26:47.516Z,17.10
2023-11-08T06:29:14.060Z,15.05
2023-11-08T06:31:48.025Z,13.00
2023-11-08T06:34:17.810Z,14.13
2023-11-08T06:36:44.635Z,15.32
2023-11-08T06:39:15.419Z,15.25
2023-11-08T06:41:44.351Z,15.25
2023-11-08T06:44:10.798Z,12.65
2023-11-08T06:46:53.518Z,14.05
2023-11-08T06:49:21.115Z,12.35
2023-11-08T06:51:48.963Z,15.52
2023-11-08T06:54:15.544Z,14.93
2023-11-08T06:56:54.384Z,13.50
2023-11-08T06:59:20.815Z,12.98
2023-11-08T07:01:48.986Z,13.35
2023-11-08T07:04:16.924Z,10.68
2023-11-08T07:06:43.735Z,11.88
2023-11-08T07:09:17.359Z,13.30
2023-11-08T07:11:43.875Z,10.75
2023-11-08T07:14:12.367Z,12.55
2023-11-08T07:16:43.452Z,11.95
2023-11-08T07:19:17.333Z,12.70
2023-11-08T07:21:43.938Z,10.98
2023-11-08T07:24:11.383Z,12.77
2023-11-08T07:26:39.673Z,12.25
2023-11-08T07:29:06.141Z,12.07
2023-11-08T07:31:35.677Z,10.65
2023-11-08T07:34:02.175Z,11.63
2023-11-08T07:36:28.646Z,12.38
2023-11-08T07:38:55.175Z,11.38
2023-11-08T07:41:21.667Z,11.05
2023-11-08T07:43:48.626Z,9.57
2023-11-08T07:46:15.113Z,8.80
2023-11-08T07:48:55.840Z,11.05
2023-11-08T07:51:25.989Z,7.60
2023-11-08T07:53:55.429Z,8.90
2023-11-08T07:56:22.153Z,9.38
2023-11-08T07:58:48.657Z,9.43
2023-11-08T08:01:21.988Z,8.60
2023-11-08T08:03:49.523Z,8.05
2023-11-08T08:06:17.210Z,9.05
2023-11-08T08:08:44.033Z,8.80
2023-11-08T08:11:14.623Z,8.30
2023-11-08T08:13:44.372Z,8.10
2023-11-08T08:16:10.907Z,8.50
2023-11-08T08:18:41.865Z,8.00
2023-11-08T08:21:10.666Z,5.50
2023-11-08T08:23:37.267Z,6.35
2023-11-08T08:26:05.640Z,8.50
2023-11-08T08:28:34.835Z,7.32
2023-11-08T08:31:09.550Z,7.35
2023-11-08T08:33:37.621Z,6.65
2023-11-08T08:36:05.781Z,6.55
2023-11-08T08:38:32.466Z,5.30
2023-11-08T08:40:58.930Z,5.82
2023-11-08T08:43:27.882Z,5.28
2023-11-08T08:45:54.303Z,4.75
2023-11-08T08:48:20.766Z,4.70
2023-11-08T08:50:47.263Z,4.65
2023-11-08T08:53:13.798Z,4.78
2023-11-08T08:55:43.730Z,4.50
2023-11-08T08:58:13.031Z,3.72
2023-11-08T09:00:48.622Z,4.18
2023-11-08T09:03:16.858Z,3.50
2023-11-08T09:05:44.501Z,4.25
2023-11-08T09:08:11.023Z,4.00
2023-11-08T09:10:37.553Z,3.25
2023-11-08T09:13:06.984Z,3.60
2023-11-08T09:15:37.062Z,3.40
2023-11-08T09:18:03.559Z,3.00
2023-11-08T09:20:30.148Z,3.95
2023-11-08T09:22:56.667Z,3.67
2023-11-08T09:25:23.035Z,2.90
2023-11-08T09:27:59.887Z,2.85
2023-11-08T09:30:26.976Z,3.58
2023-11-08T09:32:53.513Z,3.40
2023-11-08T09:35:25.659Z,2.90
2023-11-08T09:37:57.888Z,2.70
2023-11-08T09:40:24.684Z,3.42
2023-11-08T09:42:51.224Z,3.28
2023-11-08T09:45:22.811Z,2.83
2023-11-08T09:47:50.599Z,3.20
2023-11-08T09:50:20.459Z,2.50
2023-11-08T09:52:51.071Z,3.15
2023-11-08T09:55:40.621Z,2.60
2023-11-08T09:58:10.872Z,2.80
2023-11-08T10:00:37.985Z,2.58
2023-11-08T10:03:20.199Z,2.33
2023-11-08T10:05:47.042Z,3.10
2023-11-08T10:08:13.722Z,2.80
2023-11-08T10:10:46.763Z,2.78
2023-11-08T10:13:13.336Z,2.67
2023-11-08T10:15:41.506Z,2.45
2023-11-08T10:19:32.938Z,3.40
2023-11-08T10:21:05.753Z,2.55
2023-11-08T10:23:36.291Z,2.95
2023-11-08T10:26:15.470Z,2.35
2023-11-08T10:29:00.874Z,2.72
2023-11-08T10:31:41.105Z,2.50
2023-11-08T10:34:17.593Z,3.17
2023-11-08T10:36:44.196Z,2.50
2023-11-08T10:39:14.068Z,3.78
2023-11-08T10:41:48.996Z,2.97
2023-11-08T10:44:20.905Z,3.67
2023-11-08T10:46:56.692Z,3.00
2023-11-08T10:49:26.403Z,2.53
2023-11-08T10:51:52.928Z,2.92
2023-11-08T10:54:19.696Z,3.30
2023-11-08T10:56:47.130Z,2.90
2023-11-08T10:59:21.742Z,3.42
2023-11-08T11:01:51.448Z,2.78
2023-11-08T11:04:22.172Z,3.55
2023-11-08T11:06:54.319Z,3.33
2023-11-08T11:09:23.586Z,3.17
2023-11-08T11:12:00.040Z,3.30
2023-11-08T11:19:58.683Z,3.35
2023-11-08T11:24:51.700Z,3.10
2023-11-08T11:27:34.788Z,2.80
2023-11-08T11:30:19.438Z,3.00
2023-11-08T11:32:51.697Z,2.78
2023-11-08T11:35:41.500Z,3.33
2023-11-08T11:38:07.916Z,3.08
2023-11-08T11:40:35.288Z,2.80
2023-11-08T11:43:01.758Z,3.42
2023-11-08T11:45:32.279Z,5.47
2023-11-08T11:47:58.783Z,2.97
2023-11-08T11:50:33.696Z,3.78
2023-11-08T11:53:05.037Z,2.70
2023-11-08T11:55:34.423Z,3.38
2023-11-08T11:58:04.294Z,2.90
2023-11-08T12:00:32.004Z,3.40
2023-11-08T12:02:59.722Z,3.10
2023-11-08T12:08:06.864Z,3.45
2023-11-08T12:10:33.255Z,2.90
2023-11-08T12:12:59.713Z,3.13
2023-11-08T12:15:31.601Z,3.25
2023-11-08T12:20:30.394Z,2.30
2023-11-08T12:22:58.082Z,2.80
2023-11-08T12:25:27.200Z,2.75
2023-11-08T12:27:57.522Z,2.45
2023-11-08T12:30:25.568Z,2.78
2023-11-08T12:32:52.246Z,2.85
2023-11-08T12:35:18.777Z,2.25
2023-11-08T12:37:50.094Z,2.47
2023-11-08T12:40:21.068Z,2.70
2023-11-08T12:42:50.010Z,2.77
2023-11-08T12:46:34.156Z,2.08
2023-11-08T12:48:20.471Z,1.95
2023-11-08T12:50:50.181Z,2.95
2023-11-08T12:53:18.828Z,1.85
2023-11-08T12:55:53.411Z,2.28
2023-11-08T12:58:30.535Z,2.35
2023-11-08T13:01:01.336Z,2.50
2023-11-08T13:03:34.100Z,3.95
2023-11-08T13:06:03.160Z,2.35
2023-11-08T13:08:36.025Z,2.25
2023-11-08T13:11:02.607Z,1.98
2023-11-08T13:13:29.205Z,2.20
2023-11-08T13:15:56.434Z,2.00
2023-11-08T13:18:29.212Z,2.40
2023-11-08T13:20:55.745Z,2.15
2023-11-08T13:24:00.322Z,2.10
2023-11-08T13:26:11.451Z,2.22
2023-11-08T13:28:40.704Z,2.28
2023-11-08T13:31:12.242Z,2.58
2023-11-08T13:33:45.022Z,2.45
2023-11-08T13:36:11.776Z,2.55
2023-11-08T13:38:41.093Z,2.97
2023-11-08T13:41:10.705Z,2.03
2023-11-08T13:44:00.175Z,2.45
2023-11-08T13:46:24.464Z,2.55
2023-11-08T13:48:51.047Z,2.20
2023-11-08T13:51:17.689Z,2.33
2023-11-08T13:56:36.956Z,2.25
2023-11-08T13:59:03.595Z,2.30
2023-11-08T14:01:29.996Z,2.40
2023-11-08T14:03:56.482Z,1.95
2023-11-08T14:06:23.009Z,2.42
2023-11-08T14:08:52.653Z,3.35
2023-11-08T14:11:22.567Z,2.22
2023-11-08T14:13:49.126Z,2.40
2023-11-08T14:16:15.732Z,2.03
2023-11-08T14:18:42.620Z,2.22
2023-11-08T14:21:11.926Z,2.30
2023-11-08T14:23:44.949Z,2.10
2023-11-08T14:26:13.511Z,2.10
2023-11-08T14:28:42.964Z,2.72
2023-11-08T14:31:12.559Z,2.47
2023-11-08T14:33:46.803Z,2.40
2023-11-08T14:36:19.157Z,2.40
2023-11-08T14:38:45.612Z,3.03
2023-11-08T14:41:12.058Z,2.67
2023-11-08T14:43:41.362Z,2.90
2023-11-08T14:46:08.220Z,2.70
2023-11-08T14:48:34.877Z,3.05
2023-11-08T14:51:01.915Z,2.90
2023-11-08T14:53:28.915Z,2.60
2023-11-08T14:55:55.599Z,2.60
2023-11-08T14:58:23.488Z,2.80
2023-11-08T15:00:50.220Z,3.65
2023-11-08T15:03:17.048Z,2.30
2023-11-08T15:05:48.996Z,3.00
2023-11-08T15:09:49.520Z,3.10
2023-11-08T15:11:04.965Z,2.65
2023-11-08T15:13:31.614Z,2.70
2023-11-08T15:15:58.154Z,2.75
2023-11-08T15:18:24.785Z,2.90
2023-11-08T15:20:54.664Z,2.40
2023-11-08T15:23:21.346Z,2.88
2023-11-08T15:25:50.590Z,3.42
2023-11-08T15:28:17.159Z,3.00
2023-11-08T15:30:45.623Z,2.45
2023-11-08T15:33:15.212Z,2.58
2023-11-08T15:35:41.961Z,2.20
2023-11-08T15:38:10.504Z,2.22
2023-11-08T15:40:37.124Z,2.75
2023-11-08T15:43:04.005Z,2.47
2023-11-08T15:45:36.187Z,2.45
2023-11-08T15:48:02.775Z,2.47
2023-11-08T15:50:29.476Z,2.95
2023-11-08T15:52:58.513Z,2.00
2023-11-08T15:55:28.132Z,3.72
2023-11-08T15:57:54.795Z,8.60
2023-11-08T16:00:21.310Z,4.82
2023-11-08T16:02:52.224Z,17.92
2023-11-08T16:05:18.894Z,3.00
2023-11-08T16:07:45.532Z,3.40
2023-11-08T16:10:14.181Z,3.42
2023-11-08T16:12:43.648Z,4.05
2023-11-08T16:15:14.180Z,3.08
2023-11-08T16:17:50.645Z,3.67
2023-11-08T16:20:17.145Z,3.40
2023-11-08T16:22:43.569Z,2.88
2023-11-08T16:25:15.482Z,3.75
2023-11-08T16:30:59.732Z,3.38
2023-11-08T16:33:18.666Z,3.08
2023-11-08T16:35:45.542Z,2.97
2023-11-08T16:38:20.954Z,3.30
2023-11-08T16:40:56.120Z,4.03
2023-11-08T16:45:58.524Z,4.00
2023-11-08T16:48:25.096Z,3.70
2023-11-08T16:50:54.882Z,3.85
2023-11-08T16:53:21.490Z,3.72
2023-11-08T16:55:50.804Z,3.72
2023-11-08T16:58:22.838Z,4.00
2023-11-08T17:00:51.867Z,3.75
2023-11-08T17:03:20.541Z,3.17
2023-11-08T17:05:47.446Z,4.03
2023-11-08T17:08:16.874Z,4.38
2023-11-08T17:10:46.608Z,4.82
2023-11-08T17:13:13.052Z,3.90
2023-11-08T17:15:42.276Z,4.28
2023-11-08T17:18:21.243Z,4.32
2023-11-08T17:20:47.736Z,3.17
2023-11-08T17:23:18.179Z,3.80
2023-11-08T17:25:44.666Z,4.25
2023-11-08T17:28:16.823Z,3.85
2023-11-08T17:30:49.495Z,4.22
2023-11-08T17:33:15.892Z,8.00
2023-11-08T17:38:22.672Z,3.70
2023-11-08T17:40:51.811Z,5.13
2023-11-08T17:43:21.475Z,4.45
2023-11-08T17:45:53.483Z,4.13
2023-11-08T17:48:19.866Z,3.28
2023-11-08T17:50:49.267Z,3.47
2023-11-08T17:53:18.407Z,4.18
2023-11-08T17:55:47.358Z,4.45
2023-11-08T17:58:19.257Z,4.65
2023-11-08T18:03:18.616Z,4.15
2023-11-08T18:05:48.001Z,4.68
2023-11-08T18:08:14.649Z,4.03
2023-11-08T18:10:41.079Z,3.63
2023-11-08T18:13:35.661Z,4.03
2023-11-08T18:16:00.706Z,4.47
2023-11-08T18:18:29.654Z,4.65
2023-11-08T18:20:56.558Z,4.15
2023-11-08T18:23:23.285Z,3.58
2023-11-08T18:25:49.691Z,2.65
2023-11-08T18:28:19.133Z,3.92
2023-11-08T18:30:45.747Z,2.95
2023-11-08T18:33:40.023Z,2.70
2023-11-08T18:36:06.942Z,3.30
2023-11-08T18:38:34.591Z,14.00
2023-11-08T18:41:03.429Z,4.07
2023-11-08T18:43:32.809Z,3.80
2023-11-08T18:46:00.608Z,2.70
2023-11-08T18:48:34.874Z,4.20
2023-11-08T18:51:03.311Z,2.63
2023-11-08T18:53:37.233Z,3.22
2023-11-08T18:56:10.297Z,2.92
2023-11-08T18:58:37.458Z,4.03
2023-11-08T19:01:14.489Z,3.13
2023-11-08T19:03:41.328Z,2.72
2023-11-08T19:06:11.951Z,2.97
2023-11-08T19:08:42.576Z,2.10
2023-11-08T19:11:11.489Z,3.55
2023-11-08T19:13:37.999Z,4.10
2023-11-08T19:16:07.587Z,2.53
2023-11-08T19:18:35.875Z,2.58
2023-11-08T19:21:03.940Z,3.30
2023-11-08T19:23:30.512Z,2.80
2023-11-08T19:25:57.337Z,2.88
2023-11-08T19:28:27.673Z,2.50
2023-11-08T19:30:54.545Z,2.90
2023-11-08T19:33:21.190Z,7.05
2023-11-08T19:35:48.110Z,15.20
2023-11-08T19:38:17.602Z,4.40
2023-11-08T19:40:44.087Z,3.35
2023-11-08T19:43:36.907Z,3.55
2023-11-08T19:46:05.651Z,4.10
2023-11-08T19:48:32.249Z,3.17
2023-11-08T19:51:02.821Z,3.47
2023-11-08T19:53:31.833Z,2.92
2023-11-08T19:56:00.300Z,3.45
2023-11-08T19:58:29.475Z,2.80
2023-11-08T20:00:58.468Z,4.03
2023-11-08T20:03:25.046Z,3.17
2023-11-08T20:05:54.121Z,3.08
2023-11-08T20:08:27.019Z,3.97
2023-11-08T20:10:58.642Z,3.22
2023-11-08T20:13:28.001Z,4.10
2023-11-08T20:16:13.155Z,3.08
2023-11-08T20:18:42.594Z,3.55
2023-11-08T20:21:13.455Z,3.65
2023-11-08T20:23:42.603Z,2.78
2023-11-08T20:26:14.574Z,2.88
2023-11-08T20:28:43.962Z,3.83
2023-11-08T20:31:13.636Z,3.15
2023-11-08T20:33:43.707Z,3.53
2023-11-08T20:36:13.047Z,3.15
2023-11-08T20:38:44.980Z,3.28
2023-11-08T20:43:37.976Z,3.25
2023-11-08T20:46:07.981Z,2.63
2023-11-08T20:48:34.867Z,2.67
2023-11-08T20:51:03.923Z,3.20
2023-11-08T20:53:43.178Z,2.97
2023-11-08T20:56:11.305Z,3.03
2023-11-08T20:58:52.243Z,2.80
2023-11-08T21:01:28.624Z,2.90
2023-11-08T21:03:55.174Z,2.92
2023-11-08T21:06:21.694Z,2.45
2023-11-08T21:08:48.175Z,2.53
2023-11-08T21:11:14.946Z,3.22
2023-11-08T21:13:42.640Z,2.40
2023-11-08T21:16:11.556Z,2.80
2023-11-08T21:18:40.318Z,2.65
2023-11-08T21:21:06.715Z,3.05
2023-11-08T21:23:35.013Z,2.60
2023-11-08T21:26:12.163Z,2.55
2023-11-08T21:28:41.219Z,2.40
2023-11-08T21:31:18.049Z,2.72
2023-11-08T21:33:47.299Z,2.60
2023-11-08T21:36:16.554Z,2.40
2023-11-08T21:38:46.213Z,2.60
2023-11-08T21:41:12.657Z,1.60
2023-11-08T21:43:42.460Z,2.08
2023-11-08T21:46:11.678Z,2.95
2023-11-08T21:48:40.053Z,2.70
2023-11-08T21:51:16.990Z,2.00
2023-11-08T21:53:46.728Z,1.95
2023-11-08T21:56:13.196Z,2.38
2023-11-08T21:58:44.935Z,2.08
2023-11-08T22:01:11.533Z,2.15
2023-11-08T22:03:43.697Z,2.10
2023-11-08T22:06:13.564Z,2.20
2023-11-08T22:09:21.533Z,2.22
2023-11-08T22:11:50.915Z,2.10
2023-11-08T22:14:17.882Z,2.40
2023-11-08T22:16:44.513Z,2.28
2023-11-08T22:19:10.993Z,2.47
2023-11-08T22:21:45.892Z,2.40
2023-11-08T22:24:21.902Z,1.60
2023-11-08T22:26:48.408Z,1.83
2023-11-08T22:29:14.913Z,2.25
2023-11-08T22:31:44.251Z,2.00
2023-11-08T22:34:11.074Z,1.60
2023-11-08T22:36:41.849Z,1.80
2023-11-08T22:39:17.364Z,1.80
2023-11-08T22:42:02.110Z,1.80
2023-11-08T22:44:28.539Z,1.80
2023-11-08T22:49:44.637Z,1.77
2023-11-08T22:52:11.866Z,1.67
2023-11-08T22:54:46.155Z,1.90
2023-11-08T22:57:15.080Z,1.85
2023-11-08T22:59:43.827Z,1.75
2023-11-08T23:02:13.155Z,1.65
2023-11-08T23:04:43.518Z,1.60
2023-11-08T23:07:12.942Z,1.45
2023-11-08T23:09:51.707Z,1.60
2023-11-08T23:12:23.773Z,1.90
2023-11-08T23:14:52.758Z,1.70
2023-11-08T23:17:25.169Z,1.80
2023-11-08T23:19:51.671Z,1.80
2023-11-08T23:22:24.305Z,1.80
2023-11-08T23:24:54.289Z,2.00
2023-11-08T23:30:05.629Z,1.73
2023-11-08T23:32:32.144Z,1.38
2023-11-08T23:34:58.700Z,1.40
2023-11-08T23:37:25.245Z,1.40
2023-11-08T23:39:55.941Z,1.30
2023-11-08T23:42:23.089Z,1.00
2023-11-08T23:44:49.631Z,1.38
2023-11-08T23:47:16.049Z,1.20
2023-11-08T23:49:55.026Z,1.30
2023-11-08T23:52:35.711Z,1.10
2023-11-08T23:55:02.226Z,1.30
2023-11-08T23:57:28.677Z,1.13
2023-11-08T23:59:57.460Z,1.30
